createdAt,value
2019-02-02T00:00:53.247Z,23.10
2019-02-02T00:03:23.784Z,25.07
2019-02-02T00:05:54.339Z,22.63
2019-02-02T00:08:25.257Z,20.90
2019-02-02T00:10:56.089Z,21.95
2019-02-02T00:13:26.605Z,24.60
2019-02-02T00:15:57.448Z,22.93
2019-02-02T00:18:28.405Z,24.85
2019-02-02T00:20:59.289Z,27.00
2019-02-02T00:23:29.928Z,28.27
2019-02-02T00:26:00.453Z,27.03
2019-02-02T00:28:31.267Z,28.30
2019-02-02T00:31:01.837Z,23.93
2019-02-02T00:33:32.389Z,26.50
2019-02-02T00:36:03.295Z,26.67
2019-02-02T00:38:33.803Z,27.13
2019-02-02T00:41:04.603Z,27.90
2019-02-02T00:43:38.302Z,26.37
2019-02-02T00:46:08.126Z,24.53
2019-02-02T00:48:38.714Z,25.63
2019-02-02T00:51:09.459Z,29.97
2019-02-02T00:53:40.329Z,34.77
2019-02-02T00:56:12.028Z,27.03
2019-02-02T00:58:42.587Z,28.17
2019-02-02T01:01:13.683Z,28.13
2019-02-02T01:03:44.545Z,25.30
2019-02-02T01:06:15.418Z,29.60
2019-02-02T01:08:46.281Z,27.17
2019-02-02T01:11:16.947Z,23.07
2019-02-02T01:13:47.507Z,22.20
2019-02-02T01:16:18.707Z,22.40
2019-02-02T01:18:49.395Z,24.67
2019-02-02T01:21:20.140Z,19.37
2019-02-02T01:23:50.671Z,18.17
2019-02-02T01:26:21.321Z,20.70
2019-02-02T01:28:51.858Z,25.67
2019-02-02T01:31:22.692Z,26.45
2019-02-02T01:33:53.499Z,26.83
2019-02-02T01:36:24.027Z,24.23
2019-02-02T01:38:54.577Z,21.80
2019-02-02T01:41:25.393Z,21.40
2019-02-02T01:43:56.009Z,21.83
2019-02-02T01:46:26.688Z,22.77
2019-02-02T01:48:57.660Z,20.13
2019-02-02T01:51:28.429Z,25.12
2019-02-02T01:53:59.064Z,27.10
2019-02-02T01:56:29.612Z,23.20
2019-02-02T01:59:00.381Z,22.13
2019-02-02T02:01:30.873Z,23.40
2019-02-02T02:04:01.592Z,24.27
2019-02-02T02:06:32.124Z,20.97
2019-02-02T02:09:04.290Z,23.17
2019-02-02T02:11:34.916Z,27.27
2019-02-02T02:14:05.716Z,24.07
2019-02-02T02:16:36.438Z,24.80
2019-02-02T02:19:06.940Z,23.10
2019-02-02T02:21:37.587Z,26.37
2019-02-02T02:24:08.503Z,29.17
2019-02-02T02:26:39.035Z,26.47
2019-02-02T02:29:09.527Z,27.87
2019-02-02T02:31:40.056Z,23.00
2019-02-02T02:34:10.678Z,26.90
2019-02-02T02:36:41.527Z,24.30
2019-02-02T02:39:12.275Z,25.00
2019-02-02T02:41:42.877Z,26.43
2019-02-02T02:44:13.436Z,21.50
2019-02-02T02:46:43.971Z,24.83
2019-02-02T02:49:14.824Z,26.00
2019-02-02T02:51:45.864Z,27.33
2019-02-02T02:54:16.622Z,22.63
2019-02-02T02:56:47.146Z,26.07
2019-02-02T02:59:17.635Z,22.87
2019-02-02T03:01:48.489Z,23.80
2019-02-02T03:04:19.108Z,21.82
2019-02-02T03:06:49.751Z,23.70
2019-02-02T03:09:20.622Z,22.98
2019-02-02T03:11:51.473Z,22.22
2019-02-02T03:14:22.284Z,21.47
2019-02-02T03:16:53.238Z,21.67
2019-02-02T03:19:24.075Z,21.23
2019-02-02T03:21:54.850Z,21.57
2019-02-02T03:24:25.647Z,24.20
2019-02-02T03:26:56.186Z,20.77
2019-02-02T03:29:26.861Z,20.80
2019-02-02T03:31:57.554Z,22.17
2019-02-02T03:34:28.401Z,23.27
2019-02-02T03:36:58.916Z,25.47
2019-02-02T03:39:29.799Z,21.42
2019-02-02T03:42:00.565Z,21.17
2019-02-02T03:44:31.110Z,27.93
2019-02-02T03:47:03.301Z,27.57
2019-02-02T03:49:33.891Z,25.23
2019-02-02T03:52:04.751Z,23.33
2019-02-02T03:54:35.232Z,26.63
2019-02-02T03:57:05.762Z,25.83
2019-02-02T03:59:36.916Z,23.92
2019-02-02T04:02:07.675Z,28.10
2019-02-02T04:04:38.410Z,26.67
2019-02-02T04:07:08.958Z,22.60
2019-02-02T04:09:39.800Z,21.10
2019-02-02T04:12:10.322Z,21.77
2019-02-02T04:14:40.935Z,20.70
2019-02-02T04:17:13.054Z,19.40
2019-02-02T04:19:43.978Z,20.73
2019-02-02T04:22:15.016Z,19.10
2019-02-02T04:24:45.843Z,20.77
2019-02-02T04:27:16.743Z,23.02
2019-02-02T04:29:47.243Z,18.23
2019-02-02T04:32:18.129Z,24.47
2019-02-02T04:34:48.784Z,21.37
2019-02-02T04:37:19.314Z,19.12
2019-02-02T04:39:50.016Z,22.87
2019-02-02T04:42:20.795Z,23.18
2019-02-02T04:44:52.805Z,21.73
2019-02-02T04:47:23.344Z,20.63
2019-02-02T04:49:54.079Z,20.77
2019-02-02T04:52:25.107Z,18.50
2019-02-02T04:54:55.938Z,19.87
2019-02-02T04:57:26.469Z,16.33
2019-02-02T04:59:57.116Z,21.47
2019-02-02T05:02:30.312Z,19.03
2019-02-02T05:05:00.204Z,21.33
2019-02-02T05:07:31.217Z,20.20
2019-02-02T05:10:02.242Z,20.93
2019-02-02T05:12:34.427Z,21.77
2019-02-02T05:15:06.088Z,20.40
2019-02-02T05:17:36.868Z,21.67
2019-02-02T05:20:08.814Z,21.43
2019-02-02T05:22:39.450Z,20.17
2019-02-02T05:25:10.262Z,19.53
2019-02-02T05:27:41.252Z,19.23
2019-02-02T05:30:20.847Z,22.40
2019-02-02T05:32:51.536Z,20.77
2019-02-02T05:35:22.275Z,22.13
2019-02-02T05:37:53.051Z,23.90
2019-02-02T05:40:23.592Z,21.55
2019-02-02T05:42:54.101Z,23.03
2019-02-02T05:45:24.936Z,19.57
2019-02-02T05:47:55.437Z,20.83
2019-02-02T05:50:26.230Z,19.83
2019-02-02T05:52:57.093Z,22.90
2019-02-02T05:55:29.189Z,19.70
2019-02-02T05:58:00.055Z,20.82
2019-02-02T06:00:50.551Z,21.30
2019-02-02T06:03:21.366Z,19.10
2019-02-02T06:05:51.999Z,23.27
2019-02-02T06:08:23.192Z,20.52
2019-02-02T06:10:54.070Z,24.47
2019-02-02T06:13:24.940Z,21.63
2019-02-02T06:15:55.551Z,22.47
2019-02-02T06:18:26.510Z,18.75
2019-02-02T06:20:57.223Z,20.63
2019-02-02T06:23:28.115Z,21.27
2019-02-02T06:25:58.722Z,19.93
2019-02-02T06:28:29.525Z,19.97
2019-02-02T06:31:00.361Z,17.50
2019-02-02T06:33:31.313Z,22.22
2019-02-02T06:36:03.651Z,24.00
2019-02-02T06:38:34.358Z,22.77
2019-02-02T06:41:05.197Z,25.57
2019-02-02T06:43:36.024Z,24.23
2019-02-02T06:46:06.594Z,22.57
2019-02-02T06:48:37.195Z,27.80
2019-02-02T06:51:07.731Z,22.47
2019-02-02T06:53:38.260Z,21.40
2019-02-02T06:56:09.190Z,24.97
2019-02-02T06:58:39.688Z,28.67
2019-02-02T07:01:10.368Z,26.73
2019-02-02T07:03:41.335Z,25.67
2019-02-02T07:06:13.303Z,29.25
2019-02-02T07:08:44.153Z,24.77
2019-02-02T07:11:14.692Z,25.30
2019-02-02T07:13:45.288Z,30.20
2019-02-02T07:16:15.921Z,23.93
2019-02-02T07:18:46.454Z,23.57
2019-02-02T07:21:17.307Z,21.57
2019-02-02T07:23:47.972Z,26.63
2019-02-02T07:26:20.231Z,21.43
2019-02-02T07:28:51.872Z,22.67
2019-02-02T07:31:22.760Z,21.63
2019-02-02T07:33:53.773Z,21.60
2019-02-02T07:36:24.565Z,20.87
2019-02-02T07:38:55.258Z,21.13
2019-02-02T07:41:25.892Z,19.82
2019-02-02T07:43:56.490Z,20.37
2019-02-02T07:46:27.565Z,23.52
2019-02-02T07:48:58.426Z,23.13
2019-02-02T07:51:29.062Z,22.80
2019-02-02T07:53:59.565Z,21.57
2019-02-02T07:56:30.456Z,23.15
2019-02-02T07:59:00.962Z,20.67
2019-02-02T08:01:31.504Z,21.68
2019-02-02T08:04:02.041Z,26.47
2019-02-02T08:06:32.603Z,23.47
2019-02-02T08:09:04.724Z,23.20
2019-02-02T08:11:36.373Z,20.57
2019-02-02T08:14:06.931Z,23.60
2019-02-02T08:16:37.443Z,25.90
2019-02-02T08:19:07.994Z,23.50
2019-02-02T08:21:38.693Z,26.20
2019-02-02T08:24:09.367Z,24.13
2019-02-02T08:26:40.044Z,25.60
2019-02-02T08:29:10.695Z,26.50
2019-02-02T08:31:41.654Z,24.07
2019-02-02T08:34:13.680Z,24.80
2019-02-02T08:36:44.686Z,24.80
2019-02-02T08:39:15.584Z,24.53
2019-02-02T08:41:47.534Z,26.47
2019-02-02T08:44:18.351Z,22.60
2019-02-02T08:46:48.992Z,24.37
2019-02-02T08:49:19.685Z,21.75
2019-02-02T08:51:50.721Z,26.20
2019-02-02T08:54:21.700Z,24.30
2019-02-02T08:56:52.543Z,26.67
2019-02-02T08:59:23.664Z,30.35
2019-02-02T09:01:54.416Z,24.97
2019-02-02T09:04:24.942Z,25.77
2019-02-02T09:06:55.620Z,27.60
2019-02-02T09:09:26.408Z,27.75
2019-02-02T09:11:56.986Z,25.17
2019-02-02T09:14:27.774Z,30.50
2019-02-02T09:16:58.535Z,24.60
2019-02-02T09:19:29.739Z,30.23
2019-02-02T09:22:00.618Z,28.57
2019-02-02T09:24:31.432Z,30.12
2019-02-02T09:27:02.014Z,27.43
2019-02-02T09:29:32.567Z,27.53
2019-02-02T09:32:03.203Z,31.37
2019-02-02T09:34:33.841Z,29.97
2019-02-02T09:37:05.437Z,26.57
2019-02-02T09:39:35.945Z,28.47
2019-02-02T09:42:06.897Z,25.60
2019-02-02T09:44:37.480Z,27.73
2019-02-02T09:47:08.018Z,27.30
2019-02-02T09:49:38.529Z,27.33
2019-02-02T09:52:09.290Z,25.10
2019-02-02T09:54:39.817Z,30.37
2019-02-02T09:57:13.759Z,28.97
2019-02-02T09:59:44.602Z,24.97
2019-02-02T10:02:15.795Z,24.65
2019-02-02T10:04:47.618Z,27.83
2019-02-02T10:07:18.378Z,30.50
2019-02-02T10:09:48.895Z,28.20
2019-02-02T10:12:21.114Z,26.17
2019-02-02T10:14:51.869Z,26.70
2019-02-02T10:17:22.810Z,25.50
2019-02-02T10:19:53.567Z,25.70
2019-02-02T10:22:24.122Z,27.55
2019-02-02T10:24:54.762Z,22.70
2019-02-02T10:27:26.434Z,20.93
2019-02-02T10:29:58.924Z,24.07
2019-02-02T10:32:30.916Z,22.10
2019-02-02T10:35:01.759Z,22.53
2019-02-02T10:37:32.688Z,22.13
2019-02-02T10:40:03.388Z,22.13
2019-02-02T10:42:34.209Z,21.93
2019-02-02T10:45:05.364Z,19.87
2019-02-02T10:47:36.017Z,17.40
2019-02-02T10:50:08.368Z,18.67
2019-02-02T10:52:38.947Z,20.17
2019-02-02T10:55:11.382Z,17.80
2019-02-02T10:57:42.099Z,18.57
2019-02-02T11:00:18.688Z,16.52
2019-02-02T11:02:54.828Z,18.97
2019-02-02T11:05:28.967Z,15.58
2019-02-02T11:10:39.368Z,14.90
2019-02-02T11:13:11.170Z,13.70
2019-02-02T11:15:42.019Z,11.43
2019-02-02T11:18:13.996Z,13.17
2019-02-02T11:20:44.681Z,8.27
2019-02-02T11:23:15.932Z,12.00
2019-02-02T11:25:48.217Z,8.77
2019-02-02T11:28:19.406Z,12.57
2019-02-02T11:30:52.268Z,9.03
2019-02-02T11:33:25.260Z,13.80
2019-02-02T11:35:56.300Z,9.77
2019-02-02T11:38:27.401Z,9.97
2019-02-02T11:40:58.150Z,9.70
2019-02-02T11:43:31.249Z,20.12
2019-02-02T11:46:02.304Z,11.23
2019-02-02T11:48:33.548Z,12.03
2019-02-02T11:51:04.454Z,10.67
2019-02-02T11:53:37.355Z,11.63
2019-02-02T11:56:07.346Z,11.73
2019-02-02T11:58:37.966Z,10.47
2019-02-02T12:01:12.603Z,10.13
2019-02-02T12:03:43.293Z,9.50
2019-02-02T12:06:14.440Z,9.27
2019-02-02T12:08:45.137Z,9.27
2019-02-02T12:11:16.741Z,8.80
2019-02-02T12:13:48.471Z,7.70
2019-02-02T12:16:19.258Z,6.57
2019-02-02T12:18:50.227Z,7.93
2019-02-02T12:21:21.131Z,8.43
2019-02-02T12:23:51.851Z,7.83
2019-02-02T12:26:22.429Z,12.40
2019-02-02T12:28:53.406Z,12.77
2019-02-02T12:31:24.189Z,14.20
2019-02-02T12:33:55.138Z,14.47
2019-02-02T12:36:27.117Z,15.32
2019-02-02T12:38:57.994Z,24.73
2019-02-02T12:41:30.162Z,25.67
2019-02-02T12:44:02.329Z,27.73
2019-02-02T12:46:33.262Z,24.20
2019-02-02T12:49:04.315Z,23.73
2019-02-02T12:51:35.189Z,25.77
2019-02-02T12:54:06.311Z,27.15
2019-02-02T12:56:37.190Z,27.33
2019-02-02T12:59:08.206Z,24.20
2019-02-02T13:01:39.131Z,21.30
2019-02-02T13:04:09.953Z,26.23
2019-02-02T13:06:40.653Z,20.67
2019-02-02T13:09:12.166Z,20.30
2019-02-02T13:11:44.848Z,20.43
2019-02-02T13:14:15.777Z,22.27
2019-02-02T13:16:46.333Z,18.97
2019-02-02T13:19:18.631Z,18.97
2019-02-02T13:21:49.303Z,20.83
2019-02-02T13:24:20.386Z,18.12
2019-02-02T13:26:51.135Z,19.23
2019-02-02T13:29:22.355Z,18.90
2019-02-02T13:31:53.023Z,19.77
2019-02-02T13:34:25.618Z,21.37
2019-02-02T13:36:56.352Z,19.47
2019-02-02T13:39:28.255Z,17.95
2019-02-02T13:41:59.104Z,15.43
2019-02-02T13:44:30.269Z,15.60
2019-02-02T13:47:01.393Z,18.13
2019-02-02T13:49:32.424Z,18.48
2019-02-02T13:52:03.228Z,17.27
2019-02-02T13:54:34.540Z,12.73
2019-02-02T13:57:05.103Z,13.80
2019-02-02T13:59:35.655Z,17.20
2019-02-02T14:02:08.481Z,15.37
2019-02-02T14:04:41.893Z,15.33
2019-02-02T14:07:18.241Z,16.13
2019-02-02T14:09:48.043Z,14.33
2019-02-02T14:12:19.034Z,15.50
2019-02-02T14:14:50.330Z,15.60
2019-02-02T14:17:21.248Z,12.87
2019-02-02T14:19:52.423Z,15.90
2019-02-02T14:22:26.405Z,14.63
2019-02-02T14:24:57.066Z,14.07
2019-02-02T14:27:27.905Z,15.67
2019-02-02T14:29:58.573Z,14.13
2019-02-02T14:32:29.554Z,12.83
2019-02-02T14:35:00.563Z,15.67
2019-02-02T14:37:31.404Z,13.63
2019-02-02T14:40:02.346Z,13.40
2019-02-02T14:42:32.950Z,14.28
2019-02-02T14:45:04.999Z,12.83
2019-02-02T14:47:35.643Z,13.17
2019-02-02T14:50:10.285Z,13.17
2019-02-02T14:52:40.943Z,13.63
2019-02-02T14:55:14.414Z,10.50
2019-02-02T14:57:45.265Z,11.53
2019-02-02T15:00:19.561Z,14.27
2019-02-02T15:02:50.376Z,12.77
2019-02-02T15:05:22.637Z,14.87
2019-02-02T15:07:53.544Z,15.73
2019-02-02T15:10:25.601Z,14.93
2019-02-02T15:12:56.518Z,15.37
2019-02-02T15:15:27.493Z,18.25
2019-02-02T15:17:58.373Z,18.77
2019-02-02T15:20:35.085Z,18.62
2019-02-02T15:23:07.614Z,17.93
2019-02-02T15:25:38.404Z,18.37
2019-02-02T15:28:08.971Z,18.67
2019-02-02T15:30:39.632Z,19.57
2019-02-02T15:33:10.435Z,18.83
2019-02-02T15:35:41.420Z,14.93
2019-02-02T15:38:11.999Z,19.13
2019-02-02T15:40:42.629Z,20.03
2019-02-02T15:43:17.944Z,20.15
2019-02-02T15:45:48.931Z,21.77
2019-02-02T15:48:19.855Z,19.47
2019-02-02T15:50:50.458Z,20.23
2019-02-02T15:53:21.188Z,17.32
2019-02-02T15:55:51.725Z,17.47
2019-02-02T15:58:22.720Z,18.45
2019-02-02T16:00:57.322Z,16.60
2019-02-02T16:03:27.926Z,17.73
2019-02-02T16:05:58.512Z,19.87
2019-02-02T16:08:30.906Z,18.13
2019-02-02T16:11:01.519Z,21.53
2019-02-02T16:13:32.836Z,18.50
2019-02-02T16:16:03.864Z,22.77
2019-02-02T16:18:34.574Z,17.90
2019-02-02T16:21:05.420Z,20.43
2019-02-02T16:23:36.143Z,21.67
2019-02-02T16:26:06.901Z,21.53
2019-02-02T16:28:37.643Z,20.57
2019-02-02T16:31:08.499Z,20.92
2019-02-02T16:33:39.207Z,18.80
2019-02-02T16:36:09.835Z,19.57
2019-02-02T16:38:43.188Z,20.80
2019-02-02T16:41:19.070Z,16.40
2019-02-02T16:43:49.725Z,18.10
2019-02-02T16:46:23.483Z,18.75
2019-02-02T16:48:54.846Z,18.37
2019-02-02T16:51:26.148Z,18.35
2019-02-02T16:53:56.778Z,19.57
2019-02-02T16:56:28.071Z,21.07
2019-02-02T16:58:58.641Z,20.63
2019-02-02T17:01:29.235Z,24.25
2019-02-02T17:04:02.892Z,23.47
2019-02-02T17:06:32.813Z,22.90
2019-02-02T17:09:04.553Z,22.30
2019-02-02T17:11:35.464Z,23.62
2019-02-02T17:14:07.846Z,25.73
2019-02-02T17:16:39.028Z,35.30
2019-02-02T17:19:09.666Z,31.70
2019-02-02T17:21:40.693Z,32.53
2019-02-02T17:24:12.965Z,36.57
2019-02-02T17:26:43.631Z,31.53
2019-02-02T17:29:15.116Z,22.70
2019-02-02T17:31:45.742Z,23.10
2019-02-02T17:34:26.808Z,19.12
2019-02-02T17:36:49.442Z,23.03
2019-02-02T17:39:20.099Z,24.77
2019-02-02T17:41:50.687Z,21.83
2019-02-02T17:44:21.618Z,22.17
2019-02-02T17:46:52.587Z,20.15
2019-02-02T17:49:23.403Z,27.27
2019-02-02T17:51:54.091Z,23.90
2019-02-02T17:54:24.995Z,24.60
2019-02-02T17:56:55.769Z,24.77
2019-02-02T17:59:29.882Z,25.52
2019-02-02T18:01:59.282Z,22.53
2019-02-02T18:04:39.128Z,25.80
2019-02-02T18:07:02.842Z,20.63
2019-02-02T18:09:33.751Z,25.57
2019-02-02T18:12:04.663Z,25.13
2019-02-02T18:14:35.328Z,24.13
2019-02-02T18:17:05.946Z,25.17
2019-02-02T18:19:36.750Z,22.97
2019-02-02T18:22:07.588Z,23.70
2019-02-02T18:24:38.149Z,21.87
2019-02-02T18:27:08.783Z,24.63
2019-02-02T18:29:39.623Z,25.60
2019-02-02T18:32:13.347Z,29.30
2019-02-02T18:34:50.950Z,26.53
2019-02-02T18:37:15.145Z,28.80
2019-02-02T18:39:45.896Z,21.77
2019-02-02T18:42:17.048Z,26.83
2019-02-02T18:44:47.671Z,32.10
2019-02-02T18:47:18.882Z,30.17
2019-02-02T18:49:52.691Z,28.37
2019-02-02T18:52:23.373Z,29.40
2019-02-02T18:54:54.202Z,24.27
2019-02-02T18:57:26.573Z,25.80
2019-02-02T18:59:57.300Z,26.23
2019-02-02T19:02:30.437Z,29.90
2019-02-02T19:05:03.730Z,27.77
2019-02-02T19:07:33.757Z,27.33
2019-02-02T19:10:05.375Z,26.10
2019-02-02T19:12:35.984Z,27.60
2019-02-02T19:15:07.471Z,26.20
2019-02-02T19:17:38.025Z,24.60
2019-02-02T19:20:13.045Z,29.07
2019-02-02T19:22:43.747Z,26.00
2019-02-02T19:25:15.328Z,31.93
2019-02-02T19:28:05.996Z,32.37
2019-02-02T19:30:37.215Z,33.27
2019-02-02T19:33:08.301Z,29.43
2019-02-02T19:35:38.963Z,34.03
2019-02-02T19:38:10.460Z,40.23
2019-02-02T19:40:43.691Z,37.83
2019-02-02T19:43:15.095Z,35.92
2019-02-02T19:45:45.918Z,34.53
2019-02-02T19:48:18.699Z,32.67
2019-02-02T19:50:50.689Z,39.40
2019-02-02T19:53:40.281Z,29.05
2019-02-02T19:56:11.891Z,26.30
2019-02-02T19:58:42.820Z,28.12
2019-02-02T20:01:14.596Z,24.67
2019-02-02T20:03:45.961Z,22.30
2019-02-02T20:06:18.435Z,32.03
2019-02-02T20:08:49.136Z,58.00
2019-02-02T20:11:19.788Z,49.47
2019-02-02T20:13:50.415Z,45.90
2019-02-02T20:16:21.237Z,32.98
2019-02-02T20:18:52.826Z,31.23
2019-02-02T20:21:23.590Z,33.30
2019-02-02T20:23:54.286Z,33.03
2019-02-02T20:26:25.134Z,32.13
2019-02-02T20:28:55.967Z,30.10
2019-02-02T20:31:27.198Z,36.38
2019-02-02T20:33:58.146Z,31.83
2019-02-02T20:36:29.104Z,35.30
2019-02-02T20:38:59.901Z,34.50
2019-02-02T20:41:31.217Z,31.62
2019-02-02T20:44:02.301Z,33.10
2019-02-02T20:46:33.083Z,30.12
2019-02-02T20:49:03.729Z,34.83
2019-02-02T20:51:34.673Z,28.97
2019-02-02T20:54:05.794Z,31.70
2019-02-02T20:56:36.330Z,32.20
2019-02-02T20:59:07.110Z,33.73
2019-02-02T21:01:38.163Z,31.17
2019-02-02T21:04:09.060Z,32.55
2019-02-02T21:06:39.968Z,29.12
2019-02-02T21:09:10.970Z,30.55
2019-02-02T21:11:42.069Z,38.80
2019-02-02T21:14:12.962Z,33.00
2019-02-02T21:16:43.964Z,33.25
2019-02-02T21:19:15.270Z,31.20
2019-02-02T21:21:46.159Z,31.13
2019-02-02T21:24:17.243Z,30.10
2019-02-02T21:26:47.989Z,36.67
2019-02-02T21:29:19.941Z,31.25
2019-02-02T21:31:51.003Z,29.83
2019-02-02T21:34:22.354Z,24.52
2019-02-02T21:36:53.193Z,27.77
2019-02-02T21:39:24.089Z,33.28
2019-02-02T21:41:54.945Z,35.10
2019-02-02T21:44:25.582Z,29.82
2019-02-02T21:46:56.201Z,27.27
2019-02-02T21:49:27.209Z,25.35
2019-02-02T21:51:58.158Z,31.97
2019-02-02T21:54:29.100Z,27.70
2019-02-02T21:57:00.158Z,31.37
2019-02-02T21:59:31.099Z,27.85
2019-02-02T22:02:01.738Z,30.53
2019-02-02T22:04:32.496Z,36.15
2019-02-02T22:07:03.244Z,30.13
2019-02-02T22:09:35.240Z,32.70
2019-02-02T22:12:06.410Z,36.33
2019-02-02T22:14:39.065Z,28.80
2019-02-02T22:17:11.798Z,35.67
2019-02-02T22:19:42.480Z,31.20
2019-02-02T22:22:13.359Z,35.50
2019-02-02T22:24:44.189Z,32.90
2019-02-02T22:27:16.876Z,31.23
2019-02-02T22:29:49.321Z,35.57
2019-02-02T22:32:20.497Z,30.83
2019-02-02T22:34:51.102Z,32.63
2019-02-02T22:37:21.635Z,28.85
2019-02-02T22:39:52.271Z,33.13
2019-02-02T22:42:23.113Z,31.80
2019-02-02T22:44:54.096Z,27.32
2019-02-02T22:47:24.709Z,27.33
2019-02-02T22:49:55.246Z,33.83
2019-02-02T22:52:25.920Z,28.80
2019-02-02T22:54:56.872Z,25.57
2019-02-02T22:57:27.510Z,39.07
2019-02-02T22:59:58.209Z,33.43
2019-02-02T23:02:29.384Z,37.08
2019-02-02T23:05:48.421Z,34.63
2019-02-02T23:08:51.545Z,27.77
2019-02-02T23:12:30.411Z,33.77
2019-02-02T23:15:52.435Z,37.03
2019-02-02T23:18:23.629Z,32.30
2019-02-02T23:20:54.427Z,36.00
2019-02-02T23:23:26.571Z,32.05
2019-02-02T23:25:57.121Z,31.43
2019-02-02T23:28:28.935Z,33.10
2019-02-02T23:30:59.610Z,32.53
2019-02-02T23:33:30.494Z,36.47
2019-02-02T23:36:01.417Z,29.83
2019-02-02T23:38:32.309Z,28.47
2019-02-02T23:41:03.140Z,33.80
2019-02-02T23:43:33.702Z,31.42
2019-02-02T23:46:04.473Z,30.93
2019-02-02T23:48:35.310Z,33.27
2019-02-02T23:51:07.081Z,28.97
2019-02-02T23:53:37.715Z,30.23
2019-02-02T23:56:08.258Z,32.70
2019-02-02T23:58:38.865Z,32.33
